EGYM - Marham
Distance from station: E 5mi, 14km
Updated: 06/22/2018 6:50pm
Partly Cloudy
Partly Cloudy
 Wind from SE
Wind: SE 6 mph , 9 km/h
Temperature: 50°F , 10°C
Wind Chill: 48°F , 9°C
Dew Point: 45°F , 7°C
Humidity: 82%
Barometer: 30.39 inHg , 1029 hPa
Clouds: Partly Cloudy
Visibility: 6 miles , 10 km
Cloud details: Partly Cloudy 17000 ft
2018/06/23 01:50 EGYM 230150Z AUTO 14005KT 9999 SCT170/// 10/07 Q1029